Time;durP1;ratioP1;P1;durP2;ratioP2;P2;SDS_P1;SDS_P2;PMS_P1;PMS_P2;Temp;Humidity;BMP_temperature;BMP_pressure;BME280_temperature;BME280_humidity;BME280_pressure;Samples;Min_cycle;Max_cycle;Signal;HPM_P1;HPM_P2
2021/12/15 00:01:12;;;;;;;16.57;2.87;;;10.90;53.10;;;;;;5032064;28;20230;-68
2021/12/15 00:03:38;;;;;;;18.55;3.50;;;11.00;52.90;;;;;;5041431;28;20424;-68
2021/12/15 00:06:12;;;;;;;12.70;3.20;;;11.00;52.20;;;;;;5044915;28;20197;-68
2021/12/15 00:08:39;;;;;;;17.77;2.90;;;10.90;53.10;;;;;;5045121;28;20483;-68
2021/12/15 00:11:05;;;;;;;42.97;4.22;;;10.80;53.40;;;;;;5045520;28;20186;-68
2021/12/15 00:13:31;;;;;;;28.48;3.33;;;10.60;54.30;;;;;;5034058;28;20186;-69
2021/12/15 00:15:57;;;;;;;9.25;2.25;;;10.60;54.30;;;;;;5034064;28;20222;-71
2021/12/15 00:18:23;;;;;;;17.53;2.47;;;10.70;54.20;;;;;;5045201;28;20241;-68
2021/12/15 00:20:48;;;;;;;21.60;3.20;;;10.80;53.80;;;;;;5039423;28;20462;-68
2021/12/15 00:23:14;;;;;;;18.67;3.97;;;10.90;53.10;;;;;;5040230;28;20652;-68
2021/12/15 00:25:43;;;;;;;19.55;3.45;;;10.90;53.60;;;;;;5040445;28;20214;-68
2021/12/15 00:28:09;;;;;;;24.30;3.65;;;10.80;53.50;;;;;;5033688;28;20203;-68
2021/12/15 00:30:36;;;;;;;14.13;2.30;;;10.90;53.20;;;;;;5031219;28;20181;-68
2021/12/15 00:33:02;;;;;;;15.90;2.58;;;11.00;53.00;;;;;;5036189;28;20214;-69
2021/12/15 00:35:28;;;;;;;18.50;3.28;;;10.90;53.30;;;;;;5030806;28;20657;-69
2021/12/15 00:37:54;;;;;;;29.83;5.70;;;10.80;53.80;;;;;;5030149;28;20305;-70
2021/12/15 00:40:22;;;;;;;19.93;3.97;;;11.10;53.50;;;;;;5031001;28;20211;-71
2021/12/15 00:42:49;;;;;;;18.80;4.25;;;10.90;52.90;;;;;;5030803;28;20257;-71
2021/12/15 00:45:16;;;;;;;16.80;3.25;;;10.70;54.10;;;;;;5036218;28;20179;-68
2021/12/15 00:47:43;;;;;;;17.33;2.83;;;10.80;53.50;;;;;;5045042;28;20213;-71
2021/12/15 00:50:11;;;;;;;10.32;2.42;;;10.70;54.00;;;;;;5034427;28;20176;-68
2021/12/15 00:52:39;;;;;;;18.40;2.85;;;10.90;53.40;;;;;;5043973;28;20179;-68
2021/12/15 00:55:08;;;;;;;18.00;3.28;;;11.00;52.80;;;;;;5035276;28;20263;-68
2021/12/15 00:57:35;;;;;;;17.75;2.85;;;10.90;53.30;;;;;;5030488;28;20198;-70
2021/12/15 01:00:01;;;;;;;26.27;4.25;;;10.90;52.60;;;;;;5030327;28;20210;-69
2021/12/15 01:02:28;;;;;;;12.25;2.97;;;11.00;52.40;;;;;;5030707;28;20185;-68
2021/12/15 01:04:54;;;;;;;14.82;2.88;;;11.00;52.20;;;;;;5031833;28;20197;-71
2021/12/15 01:07:20;;;;;;;17.93;3.00;;;10.90;52.20;;;;;;5038175;28;20206;-68
2021/12/15 01:09:53;;;;;;;18.10;3.78;;;10.90;52.70;;;;;;5031035;28;20191;-68
2021/12/15 01:20:38;;;;;;;17.65;2.95;;;10.80;52.70;;;;;;5032734;28;20233;-68
2021/12/15 01:23:08;;;;;;;16.13;3.90;;;10.90;53.10;;;;;;5030274;28;20594;-68
2021/12/15 01:25:40;;;;;;;16.67;3.30;;;10.70;53.80;;;;;;5030614;28;20190;-72
2021/12/15 01:28:07;;;;;;;22.85;3.45;;;10.60;54.10;;;;;;5030027;28;20695;-71
2021/12/15 01:30:37;;;;;;;16.08;3.30;;;11.00;54.30;;;;;;5030725;28;20188;-68
2021/12/15 01:33:05;;;;;;;15.43;3.03;;;10.90;52.80;;;;;;5030716;28;20192;-68
2021/12/15 01:35:32;;;;;;;18.08;3.40;;;11.50;52.80;;;;;;5033044;28;20574;-69
2021/12/15 01:37:59;;;;;;;18.70;2.83;;;11.00;52.00;;;;;;5040977;28;20212;-68
2021/12/15 01:40:36;;;;;;;24.17;3.58;;;11.00;52.50;;;;;;5046201;28;20196;-70
2021/12/15 01:43:22;;;;;;;15.98;2.78;;;10.70;52.70;;;;;;5038912;28;20197;-68
2021/12/15 01:48:58;;;;;;;17.17;3.00;;;10.90;53.00;;;;;;5000620;28;20288;-68
2021/12/15 01:51:24;;;;;;;18.55;3.03;;;10.90;52.60;;;;;;5010763;28;20258;-71
2021/12/15 01:53:50;;;;;;;17.37;3.63;;;10.80;53.20;;;;;;4999071;28;20225;-72
2021/12/15 01:56:15;;;;;;;19.47;3.67;;;10.90;52.60;;;;;;5010772;28;20270;-72
2021/12/15 01:58:41;;;;;;;17.07;3.80;;;10.90;52.60;;;;;;5003102;28;20467;-72
2021/12/15 02:01:08;;;;;;;23.33;3.80;;;11.20;51.70;;;;;;5005314;28;20474;-72
2021/12/15 02:03:36;;;;;;;19.67;3.90;;;10.70;52.70;;;;;;4994804;28;20210;-69
2021/12/15 02:06:04;;;;;;;29.30;5.18;;;10.80;53.00;;;;;;5004057;28;20760;-72
2021/12/15 02:08:29;;;;;;;24.23;3.88;;;10.70;52.90;;;;;;4995809;28;20202;-72
2021/12/15 02:10:55;;;;;;;28.03;4.23;;;11.10;51.30;;;;;;4999382;28;20202;-72
2021/12/15 02:13:21;;;;;;;21.45;3.42;;;10.80;52.00;;;;;;5002446;28;20203;-71
2021/12/15 02:15:56;;;;;;;21.70;4.10;;;10.60;53.60;;;;;;5003051;28;20280;-72
2021/12/15 02:18:27;;;;;;;19.95;3.88;;;10.70;53.20;;;;;;5010288;28;21011;-72
2021/12/15 02:20:57;;;;;;;27.38;3.92;;;10.80;52.50;;;;;;5035679;28;20575;-72
2021/12/15 02:23:31;;;;;;;15.60;3.53;;;10.80;52.50;;;;;;5047847;28;20268;-71
2021/12/15 02:25:58;;;;;;;11.18;3.70;;;10.80;52.90;;;;;;5033010;28;20177;-72
2021/12/15 02:28:25;;;;;;;18.02;3.80;;;10.90;51.90;;;;;;5034661;28;20686;-71
2021/12/15 02:38:38;;;;;;;14.30;2.80;;;11.10;51.20;;;;;;5032662;28;20273;-70
2021/12/15 02:41:10;;;;;;;18.90;3.72;;;11.00;51.70;;;;;;5044442;28;20630;-70
2021/12/15 02:43:36;;;;;;;26.25;4.40;;;11.10;51.30;;;;;;5036790;28;20195;-70
2021/12/15 02:46:03;;;;;;;19.55;4.00;;;11.10;50.90;;;;;;5032792;28;20572;-70
2021/12/15 02:48:29;;;;;;;25.73;4.78;;;11.10;50.80;;;;;;5046404;28;20311;-69
2021/12/15 02:50:55;;;;;;;17.90;3.10;;;11.40;51.30;;;;;;5033725;28;20669;-70
2021/12/15 02:53:22;;;;;;;26.97;2.90;;;11.10;51.20;;;;;;5037056;28;20436;-69
2021/12/15 02:55:49;;;;;;;19.00;3.00;;;10.90;51.70;;;;;;5032827;28;20437;-69
2021/12/15 02:58:15;;;;;;;23.15;3.65;;;10.90;51.60;;;;;;5033649;28;20658;-69
2021/12/15 03:00:53;;;;;;;19.57;3.53;;;11.00;52.30;;;;;;5032331;28;20214;-70
2021/12/15 03:05:51;;;;;;;21.87;3.93;;;10.90;51.50;;;;;;5046076;28;20183;-70
2021/12/15 03:08:22;;;;;;;20.58;3.83;;;11.00;51.70;;;;;;5048622;28;20209;-70
2021/12/15 03:16:21;;;;;;;19.10;4.07;;;11.30;49.80;;;;;;5040457;28;20228;-70
2021/12/15 03:18:48;;;;;;;19.33;4.10;;;11.40;49.90;;;;;;5040133;28;20264;-70
2021/12/15 03:21:25;;;;;;;23.63;4.25;;;11.40;49.90;;;;;;5031767;28;20213;-69
2021/12/15 03:23:53;;;;;;;14.48;3.17;;;11.30;49.80;;;;;;5033526;28;20174;-70
2021/12/15 03:26:25;;;;;;;19.60;3.60;;;11.20;49.70;;;;;;5031214;28;20202;-70
2021/12/15 03:37:22;;;;;;;22.65;3.47;;;11.10;49.70;;;;;;5031757;28;20186;-70
2021/12/15 03:40:09;;;;;;;20.55;2.95;;;11.30;50.80;;;;;;5040615;28;20211;-70
2021/12/15 03:42:41;;;;;;;16.65;2.25;;;11.10;49.60;;;;;;5036864;28;20196;-70
2021/12/15 03:45:10;;;;;;;42.13;3.05;;;11.20;49.30;;;;;;5041966;28;20179;-70
2021/12/15 03:47:39;;;;;;;18.58;3.10;;;11.40;48.50;;;;;;5039890;28;20577;-70
2021/12/15 03:50:07;;;;;;;15.73;3.22;;;11.30;49.80;;;;;;5033817;28;20215;-70
2021/12/15 03:52:33;;;;;;;11.45;2.22;;;11.30;49.80;;;;;;5040973;28;20190;-70
2021/12/15 03:54:59;;;;;;;16.98;2.92;;;11.40;49.90;;;;;;5045538;28;20186;-70
2021/12/15 03:57:25;;;;;;;22.70;3.40;;;11.10;49.50;;;;;;5031705;28;20177;-70
2021/12/15 03:59:51;;;;;;;20.50;3.90;;;11.10;50.20;;;;;;5039329;28;20462;-70
2021/12/15 04:02:18;;;;;;;18.73;3.53;;;11.30;50.50;;;;;;5038852;28;20514;-70
2021/12/15 04:04:46;;;;;;;20.15;3.22;;;11.40;48.70;;;;;;5039576;28;20431;-70
2021/12/15 04:07:13;;;;;;;20.98;2.95;;;10.90;48.80;;;;;;5031282;28;20182;-70
2021/12/15 04:09:40;;;;;;;24.02;3.25;;;10.90;49.50;;;;;;5031331;28;20273;-70
2021/12/15 04:12:06;;;;;;;15.85;2.20;;;10.80;49.30;;;;;;5031616;28;20194;-69
2021/12/15 04:14:42;;;;;;;17.15;2.75;;;10.50;49.10;;;;;;5034188;28;20223;-70
2021/12/15 04:17:18;;;;;;;22.42;2.60;;;10.60;49.10;;;;;;5041961;28;20184;-69
2021/12/15 04:19:44;;;;;;;17.05;2.15;;;10.70;49.20;;;;;;5033063;28;20302;-70
2021/12/15 04:22:10;;;;;;;17.43;2.07;;;10.80;49.00;;;;;;5037485;28;20262;-70
2021/12/15 04:24:36;;;;;;;13.73;2.53;;;10.70;48.10;;;;;;5031106;28;20929;-69
2021/12/15 04:27:02;;;;;;;14.70;2.10;;;10.60;49.10;;;;;;5032311;28;20181;-70
2021/12/15 04:29:29;;;;;;;9.87;1.70;;;10.50;49.10;;;;;;5042116;28;20577;-70
2021/12/15 04:32:03;;;;;;;18.33;2.88;;;10.40;48.90;;;;;;5031229;28;20581;-70
2021/12/15 04:34:29;;;;;;;15.38;2.13;;;10.20;49.20;;;;;;5031243;28;20708;-69
2021/12/15 04:36:55;;;;;;;19.87;2.63;;;10.20;50.80;;;;;;5035860;28;20253;-70
2021/12/15 04:39:26;;;;;;;10.70;1.87;;;10.60;50.60;;;;;;5031268;28;20206;-70
2021/12/15 04:41:54;;;;;;;22.38;2.95;;;10.40;49.10;;;;;;5031161;28;20267;-73
2021/12/15 04:44:24;;;;;;;16.00;2.00;;;10.50;48.90;;;;;;5039127;28;20218;-70
2021/12/15 04:47:00;;;;;;;25.20;3.08;;;10.60;48.80;;;;;;5038389;28;20179;-70
2021/12/15 04:49:32;;;;;;;14.93;2.00;;;10.60;48.40;;;;;;5031778;28;20846;-70
2021/12/15 04:51:58;;;;;;;21.33;2.50;;;10.70;48.00;;;;;;5030683;28;20194;-70
2021/12/15 04:54:25;;;;;;;20.08;2.60;;;10.50;47.00;;;;;;5036236;28;20205;-70
2021/12/15 04:56:51;;;;;;;19.58;2.50;;;10.40;47.70;;;;;;5033214;28;20185;-70
2021/12/15 04:59:17;;;;;;;15.67;2.07;;;10.50;48.00;;;;;;5030681;28;20208;-70
2021/12/15 05:01:43;;;;;;;14.17;1.90;;;10.40;48.00;;;;;;5030386;28;20532;-69
2021/12/15 05:04:09;;;;;;;16.48;2.22;;;10.30;47.80;;;;;;5039011;28;20430;-70
2021/12/15 05:06:35;;;;;;;17.60;2.37;;;10.30;48.70;;;;;;5036488;28;20194;-70
2021/12/15 05:09:01;;;;;;;30.25;3.33;;;10.10;48.70;;;;;;5032531;28;20207;-70
2021/12/15 05:11:27;;;;;;;12.27;2.90;;;10.30;48.00;;;;;;5033404;28;20189;-70
2021/12/15 05:13:52;;;;;;;14.80;2.40;;;10.30;48.10;;;;;;5033573;28;20821;-70
2021/12/15 05:16:18;;;;;;;13.93;2.00;;;10.50;47.60;;;;;;5041653;28;20222;-70
2021/12/15 05:18:44;;;;;;;18.70;2.50;;;10.70;46.90;;;;;;5039508;28;20209;-69
2021/12/15 05:21:11;;;;;;;22.63;2.92;;;10.50;46.50;;;;;;5048990;28;20265;-70
2021/12/15 05:23:38;;;;;;;18.67;2.45;;;10.20;47.20;;;;;;5034164;28;20237;-69
2021/12/15 05:26:04;;;;;;;32.45;4.05;;;10.00;48.60;;;;;;5041310;28;20176;-70
2021/12/15 05:28:30;;;;;;;17.17;2.40;;;9.90;50.20;;;;;;5034604;28;20205;-70
2021/12/15 05:30:57;;;;;;;22.00;2.53;;;9.70;49.90;;;;;;5040293;28;20426;-70
2021/12/15 05:33:23;;;;;;;12.90;2.28;;;9.80;50.60;;;;;;5034168;28;20614;-73
2021/12/15 05:35:49;;;;;;;17.95;2.10;;;9.90;50.40;;;;;;5032503;28;20277;-70
2021/12/15 05:38:17;;;;;;;15.25;1.98;;;10.20;48.10;;;;;;5040604;28;20250;-70
2021/12/15 05:40:43;;;;;;;19.63;3.22;;;10.30;47.10;;;;;;5042387;28;20674;-70
2021/12/15 05:43:09;;;;;;;20.58;2.85;;;10.30;47.00;;;;;;5036187;28;20201;-70
2021/12/15 05:45:37;;;;;;;17.73;2.22;;;10.20;47.10;;;;;;5041591;28;20255;-70
2021/12/15 05:48:06;;;;;;;17.60;2.28;;;10.20;47.70;;;;;;5048684;28;20259;-70
2021/12/15 05:50:32;;;;;;;17.50;2.22;;;10.40;47.20;;;;;;5033785;28;20227;-71
2021/12/15 05:53:00;;;;;;;25.02;2.83;;;10.60;46.70;;;;;;5041877;28;20209;-70
2021/12/15 05:55:26;;;;;;;16.85;2.45;;;10.50;46.70;;;;;;5035333;28;20222;-71
2021/12/15 05:57:52;;;;;;;12.30;2.40;;;10.50;46.90;;;;;;5052931;28;20289;-70
2021/12/15 06:00:21;;;;;;;16.30;2.53;;;10.60;47.00;;;;;;5043113;28;20849;-70
2021/12/15 06:02:47;;;;;;;18.02;2.30;;;10.50;46.10;;;;;;5041174;28;20174;-70
2021/12/15 06:05:13;;;;;;;20.03;2.50;;;10.50;45.70;;;;;;5044753;28;20206;-70
2021/12/15 06:07:39;;;;;;;14.77;2.30;;;10.20;47.10;;;;;;5035192;28;20200;-70
2021/12/15 06:10:09;;;;;;;23.45;2.63;;;10.30;47.50;;;;;;5048758;28;20269;-70
2021/12/15 06:12:35;;;;;;;15.45;2.25;;;10.10;46.80;;;;;;5033272;28;20185;-70
2021/12/15 06:15:02;;;;;;;25.43;2.90;;;9.70;49.30;;;;;;5033214;28;20186;-70
2021/12/15 06:17:28;;;;;;;31.15;3.80;;;9.80;48.90;;;;;;5032439;28;20551;-70
2021/12/15 06:19:54;;;;;;;17.08;2.22;;;9.80;49.70;;;;;;5034731;28;20694;-70
2021/12/15 06:22:25;;;;;;;17.52;2.35;;;10.00;48.30;;;;;;5045397;28;20193;-70
2021/12/15 06:24:52;;;;;;;18.88;2.40;;;10.10;48.40;;;;;;5041477;28;20171;-70
2021/12/15 06:27:20;;;;;;;19.98;2.35;;;9.50;49.50;;;;;;5043502;28;20712;-70
2021/12/15 06:29:47;;;;;;;14.40;1.95;;;9.50;50.30;;;;;;5040529;28;20635;-70
2021/12/15 06:32:13;;;;;;;24.15;2.80;;;9.30;52.10;;;;;;5038230;28;20187;-70
2021/12/15 06:34:38;;;;;;;18.07;2.60;;;9.40;51.50;;;;;;5045781;28;20184;-70
2021/12/15 06:37:05;;;;;;;24.23;2.70;;;9.90;49.70;;;;;;5037889;28;20268;-70
2021/12/15 06:39:31;;;;;;;26.85;3.13;;;9.90;49.50;;;;;;5047087;28;20222;-71
2021/12/15 06:41:57;;;;;;;24.43;2.60;;;10.10;48.00;;;;;;5033091;28;20178;-70
2021/12/15 06:44:22;;;;;;;28.60;2.80;;;10.20;46.90;;;;;;5034524;28;20427;-70
2021/12/15 06:58:11;;;;;;;24.23;2.95;;;9.60;50.10;;;;;;5034983;28;20219;-70
2021/12/15 07:00:24;;;;;;;19.40;2.15;;;9.60;50.10;;;;;;5035459;28;20198;-70
2021/12/15 07:02:50;;;;;;;19.70;2.40;;;9.70;49.90;;;;;;5034230;28;20174;-69
2021/12/15 07:05:17;;;;;;;25.83;2.80;;;9.60;49.90;;;;;;5032230;28;20174;-70
2021/12/15 07:07:45;;;;;;;19.92;2.72;;;9.70;50.60;;;;;;5038606;28;20295;-70
2021/12/15 07:10:14;;;;;;;21.42;2.42;;;9.60;50.00;;;;;;5032187;28;20283;-69
2021/12/15 07:12:40;;;;;;;16.50;2.30;;;9.60;50.10;;;;;;5033728;28;20273;-69
2021/12/15 07:15:07;;;;;;;48.90;4.20;;;9.80;49.40;;;;;;5035552;28;20254;-69
2021/12/15 07:17:35;;;;;;;19.23;2.60;;;9.90;49.30;;;;;;5039462;28;20200;-70
2021/12/15 07:22:32;;;;;;;14.37;1.90;;;9.90;49.30;;;;;;5032627;28;20173;-69
2021/12/15 07:24:59;;;;;;;17.63;2.10;;;9.90;49.50;;;;;;5036063;28;20162;-70
2021/12/15 07:27:24;;;;;;;12.20;1.90;;;9.90;47.70;;;;;;5031823;28;20184;-70
2021/12/15 07:29:50;;;;;;;18.50;2.30;;;9.90;48.60;;;;;;5045114;28;20190;-69
2021/12/15 07:32:16;;;;;;;15.90;2.23;;;9.80;49.40;;;;;;5031786;28;20232;-70
2021/12/15 07:34:42;;;;;;;20.60;2.67;;;9.80;49.40;;;;;;5033101;28;20282;-70
2021/12/15 07:37:08;;;;;;;21.97;2.70;;;9.60;49.30;;;;;;5031049;28;20219;-70
2021/12/15 07:39:35;;;;;;;19.40;2.40;;;9.60;49.30;;;;;;5047523;28;20216;-69
2021/12/15 07:42:11;;;;;;;18.00;2.33;;;9.30;50.30;;;;;;5031390;28;20216;-70
2021/12/15 07:44:37;;;;;;;25.95;2.60;;;9.40;50.80;;;;;;5032951;28;20673;-69
2021/12/15 07:47:04;;;;;;;31.17;3.10;;;9.50;49.30;;;;;;5046552;28;20196;-69
2021/12/15 07:49:30;;;;;;;25.60;2.88;;;9.50;49.20;;;;;;5032047;28;20214;-69
2021/12/15 07:52:02;;;;;;;21.27;2.65;;;9.60;49.20;;;;;;5041062;28;20181;-69
2021/12/15 07:54:33;;;;;;;14.27;1.80;;;9.60;49.40;;;;;;5041832;28;20258;-71
2021/12/15 07:57:05;;;;;;;20.70;2.38;;;9.80;49.20;;;;;;5043976;28;20251;-71
2021/12/15 07:59:31;;;;;;;21.45;2.53;;;9.70;49.30;;;;;;5031673;28;20204;-71
2021/12/15 08:01:56;;;;;;;24.20;2.97;;;9.60;49.30;;;;;;5031207;28;20184;-71
2021/12/15 08:04:22;;;;;;;26.83;2.20;;;9.70;49.40;;;;;;5042763;28;20203;-71
2021/12/15 08:06:48;;;;;;;19.10;2.40;;;9.60;49.10;;;;;;5035990;28;20266;-71
2021/12/15 08:09:15;;;;;;;33.23;3.40;;;9.60;49.30;;;;;;5042728;28;20671;-71
2021/12/15 08:11:41;;;;;;;14.85;2.08;;;9.60;49.30;;;;;;5033600;28;20481;-71
2021/12/15 08:14:08;;;;;;;16.57;2.67;;;9.40;50.00;;;;;;5031202;28;20184;-70
2021/12/15 08:16:34;;;;;;;21.58;2.50;;;9.30;49.30;;;;;;5033822;28;20186;-70
2021/12/15 08:19:01;;;;;;;19.40;2.70;;;9.20;49.60;;;;;;5040485;28;20239;-70
2021/12/15 08:21:28;;;;;;;21.92;2.72;;;8.90;51.30;;;;;;5031117;28;20219;-70
2021/12/15 08:23:54;;;;;;;18.88;2.75;;;9.10;50.60;;;;;;5030852;28;20189;-71
2021/12/15 08:26:20;;;;;;;11.90;1.95;;;9.40;49.10;;;;;;5030896;28;20178;-70
2021/12/15 08:28:46;;;;;;;11.80;2.23;;;9.30;49.60;;;;;;5031228;28;20214;-70
2021/12/15 08:31:12;;;;;;;30.03;2.80;;;9.90;47.60;;;;;;5045998;28;20435;-71
2021/12/15 08:33:37;;;;;;;22.33;2.70;;;9.60;47.60;;;;;;5045154;28;20172;-70
2021/12/15 08:36:08;;;;;;;28.27;3.47;;;9.40;47.80;;;;;;5048923;28;20273;-70
2021/12/15 08:38:37;;;;;;;18.05;2.25;;;9.20;48.90;;;;;;5045538;28;20210;-70
2021/12/15 08:41:06;;;;;;;17.67;2.75;;;9.20;50.10;;;;;;5041678;28;20202;-70
2021/12/15 08:43:33;;;;;;;17.67;2.20;;;9.00;50.10;;;;;;5046524;28;20705;-70
2021/12/15 08:46:12;;;;;;;32.80;3.72;;;9.10;49.50;;;;;;5033544;28;20186;-70
2021/12/15 08:48:39;;;;;;;21.25;2.92;;;9.00;50.20;;;;;;5035017;28;20199;-70
2021/12/15 08:51:06;;;;;;;48.60;3.25;;;;;;;;;;5082736;22;20264;-69
2021/12/15 08:53:32;;;;;;;27.55;2.17;;;8.90;49.50;;;;;;5054377;28;20182;-69
2021/12/15 08:55:58;;;;;;;55.55;3.63;;;;;;;;;;5054031;28;20188;-70
2021/12/15 08:58:25;;;;;;;30.52;2.20;;;;;;;;;;5046026;28;20177;-69
2021/12/15 09:00:52;;;;;;;24.00;2.10;;;;;;;;;;5053754;28;20246;-69
2021/12/15 09:03:19;;;;;;;54.63;3.05;;;9.00;49.50;;;;;;5053460;28;20177;-69
2021/12/15 09:05:45;;;;;;;38.38;2.60;;;;;;;;;;5053954;28;20267;-70
2021/12/15 09:08:12;;;;;;;46.67;4.78;;;9.20;48.30;;;;;;5053760;28;20188;-69
2021/12/15 09:10:40;;;;;;;33.30;2.38;;;;;;;;;;5053068;28;20197;-70
2021/12/15 09:13:07;;;;;;;32.85;2.30;;;;;;;;;;5052919;28;20182;-73
2021/12/15 09:15:33;;;;;;;41.38;2.60;;;;;;;;;;5048038;28;20190;-70
2021/12/15 09:17:59;;;;;;;46.42;3.00;;;;;;;;;;5052265;28;20268;-69
2021/12/15 09:20:29;;;;;;;37.05;2.53;;;9.40;48.50;;;;;;5052622;28;20206;-70
2021/12/15 09:22:56;;;;;;;22.08;2.05;;;;;;;;;;5053317;28;20180;-70
2021/12/15 09:25:22;;;;;;;27.08;2.15;;;;;;;;;;5053489;28;20184;-70
2021/12/15 09:27:48;;;;;;;48.38;3.10;;;;;;;;;;5053108;28;20187;-70
2021/12/15 09:30:16;;;;;;;36.08;2.65;;;;;;;;;;5054549;28;20621;-76
2021/12/15 09:32:42;;;;;;;30.88;2.40;;;;;;;;;;5053968;28;20186;-77
2021/12/15 09:35:09;;;;;;;68.70;4.10;;;;;;;;;;5059266;28;20180;-76
2021/12/15 09:37:35;;;;;;;50.58;3.13;;;;;;;;;;5073735;28;20204;-72
2021/12/15 09:40:02;;;;;;;35.17;2.70;;;9.90;44.70;;;;;;5053995;28;20206;-72
2021/12/15 09:42:33;;;;;;;22.27;1.92;;;;;;;;;;5053084;28;20174;-72
2021/12/15 09:45:16;;;;;;;28.48;2.22;;;;;;;;;;5044208;28;20161;-72
2021/12/15 10:02:03;;;;;;;50.50;2.95;;;;;;;;;;5052116;28;20304;-72
2021/12/15 10:04:26;;;;;;;53.75;3.40;;;;;;;;;;5051442;28;20182;-72
2021/12/15 10:17:42;;;;;;;30.10;2.58;;;;;;;;;;5051360;28;20180;-72
2021/12/15 10:20:09;;;;;;;28.77;2.40;;;;;;;;;;5048874;28;20245;-73
2021/12/15 10:25:17;;;;;;;49.55;3.50;;;10.40;41.60;;;;;;5052857;28;20277;-72
2021/12/15 10:27:46;;;;;;;19.70;2.28;;;;;;;;;;5051074;28;20193;-70
2021/12/15 10:30:43;;;;;;;41.47;3.17;;;10.50;41.20;;;;;;5057428;28;20209;-70
2021/12/15 10:33:16;;;;;;;37.47;3.53;;;;;;;;;;5050539;28;20699;-70
2021/12/15 10:35:49;;;;;;;29.00;2.80;;;;;;;;;;5052398;28;20216;-71
2021/12/15 10:38:19;;;;;;;31.80;3.92;;;;;;;;;;5052695;28;20188;-70
2021/12/15 10:40:45;;;;;;;37.13;3.05;;;;;;;;;;5046399;28;20206;-71
2021/12/15 10:43:11;;;;;;;37.40;3.00;;;10.30;41.60;;;;;;5052431;28;20545;-71
2021/12/15 10:45:40;;;;;;;45.63;2.78;;;;;;;;;;5051874;28;20507;-71
2021/12/15 10:48:20;;;;;;;34.20;3.20;;;;;;;;;;5051691;28;20226;-71
2021/12/15 10:50:47;;;;;;;28.55;2.70;;;9.90;43.80;;;;;;5050232;28;20292;-71
2021/12/15 10:53:13;;;;;;;26.63;2.05;;;;;;;;;;5051935;28;20181;-70
2021/12/15 10:55:39;;;;;;;31.83;3.13;;;;;;;;;;5052095;28;20186;-70
2021/12/15 10:58:31;;;;;;;33.60;2.75;;;10.00;43.60;;;;;;5050980;28;20197;-70
2021/12/15 11:00:57;;;;;;;54.70;4.32;;;;;;;;;;5046570;28;20211;-70
2021/12/15 11:03:31;;;;;;;35.40;2.87;;;;;;;;;;5045153;28;20662;-71
2021/12/15 11:05:57;;;;;;;44.42;4.30;;;;;;;;;;5050053;28;20505;-72
2021/12/15 11:08:23;;;;;;;32.10;2.77;;;;;;;;;;5051403;28;20617;-72
2021/12/15 11:10:51;;;;;;;33.20;3.10;;;;;;;;;;5051643;28;20451;-71
2021/12/15 11:13:17;;;;;;;34.70;2.95;;;;;;;;;;5050825;28;20511;-71
2021/12/15 11:15:46;;;;;;;33.47;3.60;;;;;;;;;;5051100;28;20248;-72
2021/12/15 11:18:16;;;;;;;27.30;2.65;;;;;;;;;;5050955;28;20169;-73
2021/12/15 11:20:47;;;;;;;42.92;3.40;;;11.00;39.60;;;;;;5051109;28;20248;-71
2021/12/15 11:23:20;;;;;;;43.92;3.30;;;11.00;40.00;;;;;;5051058;28;20514;-71
2021/12/15 11:25:49;;;;;;;35.65;2.67;;;;;;;;;;5051355;28;20182;-71
2021/12/15 11:28:15;;;;;;;22.45;2.22;;;;;;;;;;5050811;28;20166;-71
2021/12/15 11:30:46;;;;;;;29.67;3.10;;;;;;;;;;5050835;28;20231;-71
2021/12/15 11:33:12;;;;;;;46.70;3.65;;;;;;;;;;5051207;28;20429;-71
2021/12/15 11:36:03;;;;;;;38.13;2.70;;;10.30;43.10;;;;;;5050705;28;20176;-71
2021/12/15 11:38:34;;;;;;;39.10;3.15;;;;;;;;;;5050605;28;20433;-71
2021/12/15 11:41:00;;;;;;;39.45;2.85;;;;;;;;;;5050572;28;20639;-71
2021/12/15 11:43:31;;;;;;;37.97;3.03;;;;;;;;;;5050916;28;20265;-71
2021/12/15 11:45:57;;;;;;;39.00;3.20;;;;;;;;;;5050736;28;20505;-71
2021/12/15 11:48:27;;;;;;;21.85;2.33;;;10.80;40.40;;;;;;5043222;28;20178;-71
2021/12/15 11:50:55;;;;;;;76.30;5.15;;;;;;;;;;5049325;28;20645;-72
2021/12/15 11:53:23;;;;;;;31.40;3.55;;;;;;;;;;5050242;28;20691;-72
2021/12/15 11:55:49;;;;;;;31.52;2.40;;;;;;;;;;5050736;28;20278;-72
2021/12/15 11:58:15;;;;;;;30.20;3.10;;;;;;;;;;5050565;28;20182;-73
2021/12/15 12:00:41;;;;;;;33.00;3.15;;;;;;;;;;5051053;28;20578;-72
2021/12/15 12:03:07;;;;;;;39.85;3.63;;;;;;;;;;5050368;28;20616;-72
2021/12/15 12:05:36;;;;;;;16.73;2.10;;;;;;;;;;5050542;28;20287;-73
2021/12/15 12:08:07;;;;;;;26.25;2.78;;;10.40;42.20;;;;;;5049367;28;20434;-72
2021/12/15 12:10:43;;;;;;;27.23;2.80;;;10.60;41.90;;;;;;5043441;28;20548;-72
2021/12/15 12:13:19;;;;;;;37.30;3.40;;;11.00;40.70;;;;;;5050298;28;20257;-72
2021/12/15 12:15:49;;;;;;;64.63;4.38;;;11.00;40.20;;;;;;5050928;28;20224;-74
2021/12/15 12:18:18;;;;;;;26.48;2.70;;;11.10;39.80;;;;;;5049476;28;20255;-73
2021/12/15 12:20:53;;;;;;;23.13;2.30;;;10.90;40.30;;;;;;5050473;28;20588;-74
2021/12/15 12:23:22;;;;;;;47.72;3.45;;;10.90;40.50;;;;;;5049622;28;20170;-73
2021/12/15 12:25:54;;;;;;;38.67;2.70;;;10.90;40.60;;;;;;5050556;28;20180;-74
2021/12/15 12:28:21;;;;;;;32.83;2.88;;;;;;;;;;5050358;28;20182;-72
2021/12/15 12:30:52;;;;;;;38.47;2.83;;;;;;;;;;5050317;28;20292;-71
2021/12/15 12:33:19;;;;;;;65.72;4.32;;;;;;;;;;5049953;28;20755;-71
2021/12/15 12:36:28;;;;;;;57.13;3.42;;;10.60;41.10;;;;;;5050718;28;20219;-71
2021/12/15 12:38:56;;;;;;;33.38;2.85;;;;;;;;;;5041744;28;20197;-71
2021/12/15 12:41:26;;;;;;;52.08;3.45;;;;;;;;;;5050200;28;20220;-72
2021/12/15 12:43:59;;;;;;;41.65;3.33;;;10.70;41.60;;;;;;5049649;28;20305;-72
2021/12/15 12:46:35;;;;;;;33.85;2.85;;;10.60;41.10;;;;;;5050218;28;20223;-72
2021/12/15 13:00:00;;;;;;;75.90;4.40;;;10.90;40.00;;;;;;5046421;28;20274;-71
2021/12/15 13:02:49;;;;;;;32.47;3.13;;;11.10;39.20;;;;;;5049842;28;20669;-71
2021/12/15 13:05:30;;;;;;;62.03;4.50;;;;;;;;;;5049743;28;20178;-70
2021/12/15 13:07:57;;;;;;;37.63;3.20;;;;;;;;;;5049182;28;20264;-70
2021/12/15 13:10:44;;;;;;;29.95;2.42;;;;;;;;;;5050109;28;20200;-72
2021/12/15 13:13:20;;;;;;;27.10;2.45;;;10.40;42.10;;;;;;5049892;28;20674;-72
2021/12/15 13:16:12;;;;;;;100.43;5.05;;;10.80;41.10;;;;;;5043497;28;20280;-72
2021/12/15 13:18:53;;;;;;;36.50;3.20;;;11.00;40.30;;;;;;5047078;28;20201;-72
2021/12/15 13:21:37;;;;;;;30.55;2.28;;;11.00;40.80;;;;;;5049682;28;20212;-72
2021/12/15 13:24:08;;;;;;;29.80;2.42;;;10.90;39.50;;;;;;5050115;28;20171;-71
2021/12/15 13:29:47;;;;;;;39.90;3.10;;;10.90;40.10;;;;;;5051090;28;20313;-72
2021/12/15 13:32:13;;;;;;;29.63;2.53;;;;;;;;;;5049974;28;20193;-71
2021/12/15 13:34:44;;;;;;;49.53;3.47;;;10.90;39.80;;;;;;5048979;28;20226;-71
2021/12/15 13:37:11;;;;;;;36.75;3.20;;;11.20;39.10;;;;;;5052640;28;20268;-71
2021/12/15 13:39:43;;;;;;;54.35;4.45;;;;;;;;;;5053107;28;20308;-72
2021/12/15 13:42:14;;;;;;;28.30;2.33;;;11.30;39.10;;;;;;5053387;28;20272;-72
2021/12/15 13:44:40;;;;;;;35.15;2.90;;;;;;;;;;5053406;28;20233;-72
2021/12/15 13:47:13;;;;;;;20.95;2.42;;;11.00;40.00;;;;;;5052951;28;20186;-72
2021/12/15 13:49:39;;;;;;;90.22;6.20;;;;;;;;;;5052989;28;20233;-72
2021/12/15 13:52:08;;;;;;;30.73;2.60;;;;;;;;;;5051939;28;20658;-70
2021/12/15 13:54:37;;;;;;;55.88;5.13;;;;;;;;;;5051790;28;20446;-69
2021/12/15 13:57:12;;;;;;;24.75;2.70;;;10.80;41.00;;;;;;5051252;28;20172;-70
2021/12/15 13:59:54;;;;;;;40.00;3.20;;;10.80;40.40;;;;;;5053952;28;20198;-70
2021/12/15 14:02:23;;;;;;;35.75;2.45;;;;;;;;;;5054535;28;20186;-70
2021/12/15 14:04:55;;;;;;;37.90;3.40;;;10.60;41.20;;;;;;5055158;28;20183;-71
2021/12/15 14:07:31;;;;;;;32.97;3.15;;;;;;;;;;5052255;28;20179;-71
2021/12/15 14:10:10;;;;;;;33.10;2.75;;;10.40;42.10;;;;;;5053072;28;20206;-71
2021/12/15 14:12:45;;;;;;;26.35;3.22;;;10.20;42.60;;;;;;5051572;28;20187;-71
2021/12/15 14:15:36;;;;;;;52.60;3.63;;;10.30;42.60;;;;;;5046202;28;20170;-71
2021/12/15 14:18:06;;;;;;;43.83;3.33;;;;;;;;;;5052821;28;20174;-71
2021/12/15 14:20:35;;;;;;;28.75;2.60;;;;;;;;;;5052895;28;20208;-71
2021/12/15 14:23:03;;;;;;;127.95;6.60;;;;;;;;;;5052438;28;20260;-71
2021/12/15 14:25:33;;;;;;;30.60;2.55;;;;;;;;;;5052575;28;20184;-71
2021/12/15 14:28:05;;;;;;;42.03;4.03;;;;;;;;;;5052613;28;20757;-71
2021/12/15 14:30:31;;;;;;;23.15;2.67;;;;;;;;;;5051416;28;20211;-71
2021/12/15 14:32:57;;;;;;;33.87;3.23;;;;;;;;;;5052413;28;20186;-71
2021/12/15 14:35:24;;;;;;;35.17;3.07;;;;;;;;;;5052328;28;20428;-71
2021/12/15 14:37:50;;;;;;;41.10;4.00;;;10.40;41.10;;;;;;5052154;28;20428;-71
2021/12/15 14:40:17;;;;;;;46.67;3.60;;;;;;;;;;5052280;28;20207;-71
2021/12/15 14:42:44;;;;;;;30.52;2.78;;;;;;;;;;5051938;28;20193;-71
2021/12/15 14:45:11;;;;;;;24.33;2.28;;;10.70;40.90;;;;;;5044112;28;20168;-71